Time;durP1;ratioP1;P1;durP2;ratioP2;P2;SDS_P1;SDS_P2;PMS_P1;PMS_P2;Temp;Humidity;BMP_temperature;BMP_pressure;BME280_temperature;BME280_humidity;BME280_pressure;Samples;Min_cycle;Max_cycle;Signal;HPM_P1;HPM_P2
2023/07/22 00:00:14;;;;;;;3.92;3.00;;;14.70;99.90;;;;;;4970795;28;20415;-87
2023/07/22 00:02:40;;;;;;;4.20;2.75;;;14.60;99.90;;;;;;4969939;28;20420;-88
2023/07/22 00:05:07;;;;;;;2.80;2.50;;;14.60;99.90;;;;;;4997795;28;20374;-87
2023/07/22 00:07:33;;;;;;;3.50;2.70;;;14.60;99.90;;;;;;4981138;28;20400;-87
2023/07/22 00:09:59;;;;;;;4.15;2.58;;;16.90;99.90;;;;;;4980997;28;20416;-87
2023/07/22 00:12:25;;;;;;;4.03;2.42;;;14.70;99.90;;;;;;4976250;28;20423;-88
2023/07/22 00:14:53;;;;;;;3.15;2.60;;;14.70;99.90;;;;;;4969943;28;20439;-87
2023/07/22 00:17:18;;;;;;;3.75;2.67;;;15.40;99.90;;;;;;4977034;28;20442;-88
2023/07/22 00:19:44;;;;;;;2.40;2.20;;;15.20;99.90;;;;;;4975129;28;20412;-87
2023/07/22 00:22:09;;;;;;;3.73;2.50;;;16.10;99.90;;;;;;4968938;28;20485;-87
2023/07/22 00:24:35;;;;;;;5.45;2.80;;;14.40;99.90;;;;;;4963375;28;20418;-88
2023/07/22 00:27:01;;;;;;;2.97;2.67;;;17.20;99.90;;;;;;4942280;29;20390;-88
2023/07/22 00:29:26;;;;;;;3.60;2.37;;;14.60;99.90;;;;;;4969394;28;20404;-89
2023/07/22 00:31:52;;;;;;;3.50;2.40;;;16.70;99.90;;;;;;4961405;28;20543;-88
2023/07/22 00:34:17;;;;;;;3.20;2.50;;;14.50;99.90;;;;;;4960604;28;20415;-88
2023/07/22 00:36:44;;;;;;;2.90;2.60;;;14.60;99.90;;;;;;4962840;28;20396;-88
2023/07/22 00:39:09;;;;;;;3.17;2.70;;;13.60;99.90;;;;;;4962309;28;21093;-88
2023/07/22 00:41:35;;;;;;;3.17;2.47;;;14.80;99.90;;;;;;4961756;28;20389;-88
2023/07/22 00:44:00;;;;;;;3.57;2.73;;;14.20;99.90;;;;;;4962391;28;20403;-88
2023/07/22 00:46:26;;;;;;;3.20;2.50;;;14.10;99.90;;;;;;4963838;28;20389;-88
2023/07/22 00:48:52;;;;;;;2.42;2.22;;;14.20;99.90;;;;;;4963484;28;20396;-87
2023/07/22 00:51:19;;;;;;;4.05;2.60;;;14.20;99.90;;;;;;4962117;28;20773;-87
2023/07/22 00:53:44;;;;;;;3.50;2.67;;;16.50;99.90;;;;;;4967713;28;20410;-88
2023/07/22 00:56:10;;;;;;;2.40;2.20;;;15.40;99.90;;;;;;4942947;29;20417;-87
2023/07/22 00:58:36;;;;;;;3.30;2.60;;;13.50;99.90;;;;;;4942022;29;20425;-88
2023/07/22 01:01:01;;;;;;;3.50;2.60;;;16.10;99.90;;;;;;4945969;29;20829;-87
2023/07/22 01:03:28;;;;;;;3.00;2.70;;;14.00;99.90;;;;;;4953392;28;20406;-89
2023/07/22 01:05:54;;;;;;;2.90;2.60;;;13.90;99.90;;;;;;4961553;28;20386;-88
2023/07/22 01:08:20;;;;;;;3.00;2.67;;;13.90;99.90;;;;;;4991234;23;20500;-80
2023/07/22 01:10:46;;;;;;;2.80;2.50;;;13.90;99.90;;;;;;4993101;28;20845;-80
2023/07/22 01:13:11;;;;;;;2.90;2.60;;;13.90;99.90;;;;;;4992459;28;20417;-80
2023/07/22 01:15:38;;;;;;;2.60;2.40;;;13.80;99.90;;;;;;4993029;28;20395;-80
2023/07/22 01:18:03;;;;;;;3.72;2.60;;;13.90;99.90;;;;;;4991783;28;20775;-80
2023/07/22 01:20:30;;;;;;;2.83;2.50;;;13.90;99.90;;;;;;4992665;28;20462;-80
2023/07/22 01:22:56;;;;;;;3.50;2.60;;;13.90;99.90;;;;;;5003744;28;20432;-80
2023/07/22 01:25:22;;;;;;;2.40;2.20;;;14.00;99.90;;;;;;5012475;28;20397;-80
2023/07/22 01:27:51;;;;;;;3.88;2.47;;;13.90;99.90;;;;;;5000769;28;20409;-80
2023/07/22 01:30:19;;;;;;;3.10;2.65;;;14.00;99.90;;;;;;4992642;28;20394;-80
2023/07/22 01:32:45;;;;;;;3.30;2.40;;;14.10;99.90;;;;;;4991985;28;20410;-80
2023/07/22 01:35:10;;;;;;;2.90;2.40;;;13.90;99.90;;;;;;5000206;28;20459;-80
2023/07/22 01:37:36;;;;;;;2.58;2.38;;;13.90;99.90;;;;;;5011852;28;20823;-79
2023/07/22 01:40:11;;;;;;;3.00;2.60;;;13.70;99.90;;;;;;5012177;28;20478;-80
2023/07/22 01:42:38;;;;;;;2.70;2.40;;;13.90;99.90;;;;;;5010801;28;20769;-80
2023/07/22 01:45:07;;;;;;;3.00;2.70;;;13.80;99.90;;;;;;5012149;28;20903;-80
2023/07/22 01:47:34;;;;;;;2.80;2.10;;;13.80;99.90;;;;;;5010248;28;20400;-80
2023/07/22 01:50:00;;;;;;;2.38;2.17;;;13.80;99.90;;;;;;5008894;28;20411;-79
2023/07/22 01:52:25;;;;;;;2.47;2.28;;;13.80;99.90;;;;;;5011976;28;20393;-80
2023/07/22 01:54:51;;;;;;;2.70;2.50;;;13.70;99.90;;;;;;5007925;28;20460;-80
2023/07/22 01:57:16;;;;;;;3.37;2.50;;;13.70;99.90;;;;;;4992279;28;20394;-80
2023/07/22 01:59:42;;;;;;;4.00;2.40;;;13.80;99.90;;;;;;4993193;28;20394;-80
2023/07/22 02:02:07;;;;;;;2.60;2.40;;;13.90;99.90;;;;;;4992824;28;20386;-80
2023/07/22 02:04:33;;;;;;;2.80;2.60;;;14.00;99.90;;;;;;4992316;28;20766;-80
2023/07/22 02:06:58;;;;;;;2.75;2.45;;;14.00;99.90;;;;;;4992533;28;20391;-80
2023/07/22 02:09:24;;;;;;;2.60;2.40;;;14.10;99.90;;;;;;4999473;28;20404;-80
2023/07/22 02:11:49;;;;;;;2.60;2.40;;;14.00;99.90;;;;;;5009947;28;20392;-80
2023/07/22 02:14:15;;;;;;;3.17;2.25;;;14.10;99.90;;;;;;5011826;28;20422;-80
2023/07/22 02:16:40;;;;;;;2.93;2.20;;;14.10;99.90;;;;;;5012269;28;20425;-80
2023/07/22 02:19:06;;;;;;;3.70;2.80;;;14.10;99.90;;;;;;5010210;28;20415;-80
2023/07/22 02:21:32;;;;;;;3.20;2.40;;;14.10;99.90;;;;;;5011734;28;20423;-80
2023/07/22 02:23:58;;;;;;;3.22;2.20;;;14.10;99.90;;;;;;5011742;28;20423;-80
2023/07/22 02:26:23;;;;;;;2.72;2.47;;;14.00;99.90;;;;;;5012319;28;20424;-80
2023/07/22 02:28:49;;;;;;;4.13;2.30;;;14.00;99.90;;;;;;5012371;28;20781;-80
2023/07/22 02:31:14;;;;;;;3.00;2.50;;;14.00;99.90;;;;;;4996703;28;20393;-80
2023/07/22 02:33:40;;;;;;;2.97;2.38;;;13.90;99.90;;;;;;4995848;28;20413;-80
2023/07/22 02:36:06;;;;;;;3.05;2.40;;;13.90;99.90;;;;;;4997287;28;20505;-80
2023/07/22 02:38:31;;;;;;;2.40;2.20;;;13.90;99.90;;;;;;4996508;28;20755;-80
2023/07/22 02:41:07;;;;;;;2.80;2.40;;;13.90;99.90;;;;;;5010142;28;20780;-80
2023/07/22 02:43:36;;;;;;;2.63;2.40;;;13.90;99.90;;;;;;4994721;28;20823;-80
2023/07/22 02:46:03;;;;;;;2.60;2.20;;;13.80;99.90;;;;;;4996588;28;20386;-80
2023/07/22 02:48:31;;;;;;;2.80;2.20;;;13.80;99.90;;;;;;4995018;28;20414;-80
2023/07/22 02:51:04;;;;;;;7.07;2.73;;;13.90;99.90;;;;;;4995967;28;20386;-80
2023/07/22 02:53:30;;;;;;;3.30;2.40;;;13.90;99.90;;;;;;4996024;28;20518;-80
2023/07/22 02:55:56;;;;;;;2.40;2.20;;;13.70;99.90;;;;;;4994205;28;20429;-80
2023/07/22 02:58:21;;;;;;;3.30;2.60;;;13.80;99.90;;;;;;4995115;28;20391;-80
2023/07/22 03:00:47;;;;;;;3.75;2.40;;;13.80;99.90;;;;;;5006693;28;20400;-79
2023/07/22 03:03:12;;;;;;;2.57;2.37;;;13.70;99.90;;;;;;5014912;28;20420;-80
2023/07/22 03:05:38;;;;;;;3.47;2.83;;;13.80;99.90;;;;;;5015682;28;20389;-80
2023/07/22 03:08:03;;;;;;;2.80;2.40;;;13.80;99.90;;;;;;5015332;28;20938;-79
2023/07/22 03:10:29;;;;;;;3.03;2.37;;;13.70;99.90;;;;;;5015028;28;20405;-80
2023/07/22 03:12:55;;;;;;;2.60;2.30;;;13.70;99.90;;;;;;5014988;28;20385;-80
2023/07/22 03:15:22;;;;;;;4.45;2.60;;;13.70;99.90;;;;;;5014930;28;20467;-79
2023/07/22 03:17:48;;;;;;;4.10;2.60;;;13.60;99.90;;;;;;5005893;28;20765;-80
2023/07/22 03:20:14;;;;;;;2.88;2.28;;;13.60;99.90;;;;;;4993267;28;20405;-79
2023/07/22 03:22:43;;;;;;;2.78;2.40;;;13.50;99.90;;;;;;4995950;28;20382;-80
2023/07/22 03:25:12;;;;;;;3.33;2.55;;;13.40;99.90;;;;;;4995778;28;20394;-80
2023/07/22 03:27:39;;;;;;;3.10;2.40;;;13.50;99.90;;;;;;4996091;28;20925;-80
2023/07/22 03:30:10;;;;;;;2.80;1.90;;;13.40;99.90;;;;;;5012898;28;20426;-80
2023/07/22 03:32:35;;;;;;;2.67;2.30;;;13.50;99.90;;;;;;5015580;28;20396;-80
2023/07/22 03:35:02;;;;;;;2.60;2.40;;;13.50;99.90;;;;;;4998510;28;20489;-80
2023/07/22 03:37:28;;;;;;;2.30;2.00;;;13.50;99.90;;;;;;4995772;28;20398;-79
2023/07/22 03:39:54;;;;;;;3.53;2.58;;;13.50;99.90;;;;;;4995587;28;20391;-80
2023/07/22 03:42:19;;;;;;;2.70;2.10;;;13.50;99.90;;;;;;4997771;28;20421;-79
2023/07/22 03:44:47;;;;;;;5.30;2.53;;;13.40;99.90;;;;;;5003174;28;21334;-80
2023/07/22 03:47:12;;;;;;;2.60;2.40;;;13.50;99.90;;;;;;5018372;28;21055;-80
2023/07/22 03:49:38;;;;;;;3.80;2.50;;;13.50;99.90;;;;;;5018565;28;20380;-80
2023/07/22 03:52:04;;;;;;;2.43;2.23;;;13.30;99.90;;;;;;5018275;28;20392;-80
2023/07/22 03:54:29;;;;;;;4.78;2.35;;;13.30;99.90;;;;;;5013461;28;20480;-80
2023/07/22 03:56:55;;;;;;;2.70;2.40;;;13.20;99.90;;;;;;4997953;28;20437;-80
2023/07/22 03:59:20;;;;;;;2.30;2.00;;;13.20;99.90;;;;;;4997962;28;20890;-80
2023/07/22 04:01:47;;;;;;;3.37;2.50;;;13.20;99.90;;;;;;5002781;28;20404;-80
2023/07/22 04:04:13;;;;;;;2.63;2.30;;;13.20;99.90;;;;;;5017063;28;20420;-80
2023/07/22 04:06:38;;;;;;;2.50;2.30;;;13.30;99.90;;;;;;5016612;28;20408;-80
2023/07/22 04:09:04;;;;;;;2.80;2.50;;;13.30;99.90;;;;;;5016354;28;20409;-80
2023/07/22 04:11:29;;;;;;;3.27;2.30;;;13.20;99.90;;;;;;5014558;28;20389;-80
2023/07/22 04:13:55;;;;;;;4.30;2.70;;;13.20;99.90;;;;;;5001440;28;20436;-80
2023/07/22 04:16:20;;;;;;;2.60;2.40;;;13.10;99.90;;;;;;5016626;28;20424;-80
2023/07/22 04:18:46;;;;;;;3.30;2.70;;;13.10;99.90;;;;;;5024767;28;20384;-79
2023/07/22 04:21:11;;;;;;;2.90;2.10;;;13.10;99.90;;;;;;5017869;28;20456;-79
2023/07/22 04:23:37;;;;;;;2.70;2.50;;;13.20;99.90;;;;;;5017320;28;20389;-78
2023/07/22 04:26:04;;;;;;;3.15;2.17;;;13.20;99.90;;;;;;4999827;28;20397;-79
2023/07/22 04:28:30;;;;;;;3.78;2.30;;;13.20;99.90;;;;;;5006295;28;20415;-79
2023/07/22 04:30:58;;;;;;;3.40;2.20;;;13.10;99.90;;;;;;5014725;28;20389;-80
2023/07/22 04:33:24;;;;;;;3.08;2.50;;;13.20;99.90;;;;;;5009750;28;20394;-80
2023/07/22 04:35:52;;;;;;;2.63;2.40;;;13.20;99.90;;;;;;4995961;28;20398;-79
2023/07/22 04:38:18;;;;;;;2.80;2.15;;;13.30;99.90;;;;;;4997669;28;20394;-80
2023/07/22 04:40:44;;;;;;;3.17;2.20;;;13.30;99.90;;;;;;4995908;28;20394;-80
2023/07/22 04:43:09;;;;;;;2.40;2.13;;;13.40;99.90;;;;;;4995687;28;20386;-80
2023/07/22 04:45:35;;;;;;;2.53;2.30;;;13.40;99.90;;;;;;4994098;28;20437;-80
2023/07/22 04:48:02;;;;;;;3.03;2.50;;;13.40;99.90;;;;;;4997828;28;20402;-80
2023/07/22 04:50:27;;;;;;;3.10;2.60;;;13.30;99.90;;;;;;5014077;28;20391;-80
2023/07/22 04:52:55;;;;;;;3.15;2.55;;;13.30;99.90;;;;;;5014791;28;20471;-79
2023/07/22 04:55:20;;;;;;;3.30;3.00;;;13.40;99.90;;;;;;5013456;28;20505;-80
2023/07/22 04:57:46;;;;;;;4.10;3.15;;;13.40;99.90;;;;;;5013080;28;20440;-80
2023/07/22 05:00:14;;;;;;;3.83;2.70;;;13.40;99.90;;;;;;5014405;28;20464;-80
2023/07/22 05:02:40;;;;;;;2.90;2.25;;;13.40;99.90;;;;;;5014270;28;20477;-79
2023/07/22 05:05:06;;;;;;;5.55;2.75;;;13.50;99.90;;;;;;5014302;28;20507;-79
2023/07/22 05:07:32;;;;;;;3.58;2.50;;;13.50;99.90;;;;;;4999894;28;20772;-80
2023/07/22 05:09:58;;;;;;;2.65;2.30;;;13.50;99.90;;;;;;5014486;28;20491;-80
2023/07/22 05:12:23;;;;;;;2.78;2.50;;;13.60;99.90;;;;;;5014889;28;20391;-79
2023/07/22 05:14:49;;;;;;;4.97;2.70;;;13.60;99.90;;;;;;5015020;28;20800;-80
2023/07/22 05:17:15;;;;;;;3.63;2.40;;;13.70;99.90;;;;;;5012686;28;20407;-79
2023/07/22 05:19:40;;;;;;;2.50;2.30;;;13.80;99.90;;;;;;4995391;28;20770;-80
2023/07/22 05:22:07;;;;;;;4.77;2.53;;;13.90;99.90;;;;;;4995057;28;20437;-80
2023/07/22 05:24:32;;;;;;;4.18;2.42;;;14.00;99.90;;;;;;5001106;28;20488;-80
2023/07/22 05:26:58;;;;;;;2.90;2.30;;;14.10;99.90;;;;;;5001469;28;20431;-80
2023/07/22 05:29:23;;;;;;;2.93;1.97;;;14.20;99.90;;;;;;4995303;28;20390;-80
2023/07/22 05:31:49;;;;;;;3.20;2.20;;;14.20;99.90;;;;;;4993798;28;20905;-79
2023/07/22 05:34:14;;;;;;;3.20;2.40;;;14.30;99.90;;;;;;4995293;28;20414;-79
2023/07/22 05:36:40;;;;;;;2.80;2.13;;;14.40;99.90;;;;;;4993617;28;20410;-80
2023/07/22 05:39:05;;;;;;;3.13;2.53;;;14.40;99.90;;;;;;4995684;28;20410;-79
2023/07/22 05:41:33;;;;;;;2.30;2.10;;;14.50;99.90;;;;;;4992533;28;20758;-78
2023/07/22 05:43:58;;;;;;;2.80;2.03;;;14.70;99.90;;;;;;4993551;28;20410;-79
2023/07/22 05:46:24;;;;;;;2.57;2.10;;;14.60;99.90;;;;;;4992525;28;20891;-79
2023/07/22 05:48:50;;;;;;;2.78;2.15;;;14.70;99.90;;;;;;4991995;28;20929;-79
2023/07/22 05:51:16;;;;;;;3.37;2.20;;;14.80;99.90;;;;;;4993328;28;20394;-79
2023/07/22 05:53:41;;;;;;;2.40;2.10;;;14.90;99.90;;;;;;4992321;28;20501;-78
2023/07/22 05:56:07;;;;;;;2.70;2.40;;;15.00;99.90;;;;;;4992377;28;20424;-79
2023/07/22 05:58:33;;;;;;;3.40;2.33;;;15.00;99.90;;;;;;4993173;28;20928;-79
2023/07/22 06:00:58;;;;;;;2.20;2.00;;;15.20;99.90;;;;;;4992026;28;20402;-79
2023/07/22 06:03:24;;;;;;;2.22;1.90;;;15.30;99.90;;;;;;4994403;28;20762;-79
2023/07/22 06:05:49;;;;;;;2.20;1.90;;;15.30;99.90;;;;;;4994109;28;20402;-79
2023/07/22 06:08:15;;;;;;;3.00;2.10;;;15.40;99.90;;;;;;4989916;28;20410;-79
2023/07/22 06:10:41;;;;;;;2.10;1.90;;;15.60;99.90;;;;;;4994022;28;20382;-79
2023/07/22 06:13:06;;;;;;;2.75;2.00;;;15.70;99.90;;;;;;4993144;28;20418;-79
2023/07/22 06:15:32;;;;;;;2.13;1.70;;;15.80;99.90;;;;;;4992118;28;20438;-79
2023/07/22 06:17:58;;;;;;;4.10;2.00;;;15.90;99.90;;;;;;4992937;28;20878;-79
2023/07/22 06:20:24;;;;;;;2.70;2.20;;;16.10;99.90;;;;;;4990859;28;20976;-80
2023/07/22 06:22:50;;;;;;;2.35;2.15;;;16.20;99.90;;;;;;4992068;28;20390;-79
2023/07/22 06:25:16;;;;;;;2.08;1.77;;;16.30;99.90;;;;;;4995724;28;20457;-79
2023/07/22 06:27:41;;;;;;;2.15;1.95;;;16.30;99.90;;;;;;4991407;28;20394;-79
2023/07/22 06:30:07;;;;;;;2.40;1.70;;;16.30;99.90;;;;;;4990864;28;20422;-79
2023/07/22 06:32:34;;;;;;;4.37;2.40;;;16.30;99.90;;;;;;4991189;28;20477;-79
2023/07/22 06:34:59;;;;;;;2.40;2.00;;;16.70;99.90;;;;;;4993642;28;20414;-80
2023/07/22 06:37:25;;;;;;;1.80;1.60;;;16.70;99.90;;;;;;4995145;28;20919;-79
2023/07/22 06:39:51;;;;;;;2.60;1.85;;;16.70;99.90;;;;;;4998792;28;20900;-80
2023/07/22 06:42:17;;;;;;;2.90;1.60;;;16.70;99.90;;;;;;4991929;28;20452;-80
2023/07/22 06:44:43;;;;;;;3.20;2.10;;;16.80;99.90;;;;;;4993892;28;20437;-80
2023/07/22 06:47:09;;;;;;;2.70;1.95;;;16.80;99.90;;;;;;4978175;28;20433;-80
2023/07/22 06:49:34;;;;;;;2.17;1.97;;;17.00;99.90;;;;;;4991059;28;20391;-79
2023/07/22 06:52:01;;;;;;;1.90;1.70;;;17.10;99.90;;;;;;4987600;28;20457;-80
2023/07/22 06:54:27;;;;;;;2.90;2.10;;;17.10;99.90;;;;;;4994262;28;20435;-79
2023/07/22 06:56:52;;;;;;;2.30;2.10;;;17.20;99.90;;;;;;4994364;28;20871;-79
2023/07/22 06:59:18;;;;;;;2.40;2.00;;;17.30;99.90;;;;;;4991726;28;20922;-80
2023/07/22 07:01:43;;;;;;;2.30;2.05;;;17.30;99.90;;;;;;4990743;28;20449;-80
2023/07/22 07:04:09;;;;;;;1.97;1.70;;;17.50;99.90;;;;;;4992441;28;20456;-79
2023/07/22 07:06:34;;;;;;;2.33;1.97;;;17.60;99.90;;;;;;4992812;28;20748;-79
2023/07/22 07:09:03;;;;;;;2.25;1.88;;;17.70;99.90;;;;;;5004626;23;20460;-86
2023/07/22 07:11:29;;;;;;;2.08;1.88;;;17.80;99.90;;;;;;4975268;28;20388;-87
2023/07/22 07:13:55;;;;;;;2.10;1.90;;;17.70;99.90;;;;;;4955778;28;20418;-86
2023/07/22 07:16:23;;;;;;;3.60;2.13;;;17.90;99.90;;;;;;4968527;28;20409;-86
2023/07/22 07:18:49;;;;;;;2.58;2.30;;;18.00;99.90;;;;;;4975471;28;21078;-87
2023/07/22 07:21:15;;;;;;;2.40;1.92;;;17.40;99.90;;;;;;5003833;28;20461;-85
2023/07/22 07:23:40;;;;;;;3.10;2.10;;;19.50;99.90;;;;;;5014333;28;20393;-85
2023/07/22 07:26:06;;;;;;;2.40;2.00;;;18.10;99.90;;;;;;5016360;28;20402;-86
2023/07/22 07:28:32;;;;;;;2.45;2.25;;;;;;;;;;5004471;28;20398;-86
2023/07/22 07:30:58;;;;;;;2.47;2.00;;;18.40;99.90;;;;;;4991254;28;20390;-86
2023/07/22 07:33:23;;;;;;;2.03;1.83;;;18.40;99.90;;;;;;4991460;28;20384;-85
2023/07/22 07:35:49;;;;;;;2.70;1.70;;;18.80;99.90;;;;;;4981608;28;20400;-86
2023/07/22 07:38:15;;;;;;;3.60;2.00;;;18.90;99.90;;;;;;4996526;28;20443;-86
2023/07/22 07:40:40;;;;;;;3.80;2.00;;;19.20;99.90;;;;;;4982563;28;20401;-84
2023/07/22 07:43:06;;;;;;;3.87;2.10;;;19.40;99.90;;;;;;4988411;28;20390;-86
2023/07/22 07:45:32;;;;;;;2.85;1.80;;;;;;;;;;4998166;28;20477;-86
2023/07/22 07:47:57;;;;;;;2.92;2.40;;;19.80;99.90;;;;;;4996195;28;20383;-83
2023/07/22 07:50:23;;;;;;;3.80;2.10;;;;;;;;;;4995869;28;20786;-89
2023/07/22 07:52:49;;;;;;;3.83;1.80;;;20.50;99.90;;;;;;4995876;28;20874;-88
2023/07/22 07:55:14;;;;;;;2.47;2.03;;;20.60;99.90;;;;;;4996433;28;20496;-86
2023/07/22 07:57:40;;;;;;;2.50;2.00;;;;;;;;;;4995378;28;20418;-85
2023/07/22 08:00:08;;;;;;;2.67;2.10;;;20.90;99.90;;;;;;4976570;28;20420;-87
2023/07/22 08:02:35;;;;;;;3.13;2.13;;;20.90;99.90;;;;;;4976404;28;20384;-86
2023/07/22 08:05:00;;;;;;;3.70;2.00;;;20.90;99.90;;;;;;4979956;28;20442;-87
2023/07/22 08:07:26;;;;;;;2.70;2.20;;;23.00;99.90;;;;;;4983787;28;20917;-86
2023/07/22 08:09:52;;;;;;;2.63;2.13;;;23.90;99.90;;;;;;4983694;28;20396;-85
2023/07/22 08:12:18;;;;;;;2.90;2.00;;;21.10;99.90;;;;;;4981490;28;20392;-88
2023/07/22 08:14:44;;;;;;;3.20;2.30;;;21.10;99.90;;;;;;5003208;28;20456;-86
2023/07/22 08:17:09;;;;;;;3.40;2.00;;;22.80;99.90;;;;;;5012483;28;20455;-85
2023/07/22 08:19:35;;;;;;;3.00;2.10;;;21.10;99.90;;;;;;5004896;28;20386;-86
2023/07/22 08:22:01;;;;;;;1.98;1.75;;;21.20;99.90;;;;;;5000206;28;20390;-90
2023/07/22 08:24:27;;;;;;;3.37;2.40;;;21.30;99.90;;;;;;4995765;28;20767;-89
2023/07/22 08:26:52;;;;;;;2.30;2.10;;;20.50;99.90;;;;;;4992808;28;20398;-90
2023/07/22 08:29:18;;;;;;;3.55;2.00;;;24.00;99.90;;;;;;4992636;28;20405;-86
2023/07/22 08:31:43;;;;;;;4.40;1.90;;;22.90;99.90;;;;;;4985522;28;20951;-83
2023/07/22 08:34:09;;;;;;;4.28;2.28;;;20.40;99.90;;;;;;4973686;28;20423;-88
2023/07/22 08:36:35;;;;;;;2.30;2.10;;;21.90;99.90;;;;;;4974833;28;20399;-87
2023/07/22 08:39:01;;;;;;;2.58;1.60;;;20.20;99.90;;;;;;4972868;28;20403;-90
2023/07/22 08:41:27;;;;;;;3.97;2.20;;;22.20;99.90;;;;;;4973682;28;20392;-84
2023/07/22 08:43:55;;;;;;;2.20;2.00;;;20.30;99.90;;;;;;4979745;28;20403;-88
2023/07/22 08:46:23;;;;;;;3.78;2.00;;;21.60;99.90;;;;;;4967417;28;20469;-90
2023/07/22 08:48:53;;;;;;;1.90;1.80;;;21.60;99.90;;;;;;4954774;28;20385;-88
2023/07/22 08:51:19;;;;;;;2.80;1.98;;;22.30;99.90;;;;;;4965916;28;20432;-88
2023/07/22 08:53:49;;;;;;;3.00;2.00;;;20.60;99.90;;;;;;4965211;28;20448;-86
2023/07/22 08:56:15;;;;;;;2.60;2.10;;;21.70;99.90;;;;;;4959141;28;20430;-87
2023/07/22 08:58:43;;;;;;;1.52;1.42;;;23.80;99.90;;;;;;4957361;28;20397;-83
2023/07/22 09:01:09;;;;;;;1.80;1.60;;;20.60;99.90;;;;;;4954787;28;20898;-84
2023/07/22 09:03:35;;;;;;;4.00;1.87;;;24.20;99.90;;;;;;4956806;28;20401;-90
2023/07/22 09:06:01;;;;;;;1.75;1.65;;;23.70;99.90;;;;;;4977003;28;20396;-83
2023/07/22 09:08:26;;;;;;;2.30;1.50;;;24.50;99.90;;;;;;4975518;28;20404;-89
2023/07/22 09:10:53;;;;;;;3.20;1.60;;;23.60;99.90;;;;;;4976531;28;20476;-86
2023/07/22 09:13:20;;;;;;;1.90;1.80;;;22.00;99.90;;;;;;4996267;28;20404;-87
2023/07/22 09:15:47;;;;;;;2.03;1.67;;;24.40;99.90;;;;;;4981980;28;20458;-87
2023/07/22 09:18:14;;;;;;;2.05;1.33;;;25.00;99.90;;;;;;4976882;28;20408;-84
2023/07/22 09:20:41;;;;;;;3.40;1.50;;;21.10;99.90;;;;;;4974284;28;20481;-87
2023/07/22 09:23:07;;;;;;;2.58;1.50;;;22.20;99.90;;;;;;4975907;28;20403;-88
2023/07/22 09:25:33;;;;;;;1.70;1.60;;;24.70;99.90;;;;;;4978130;28;20380;-87
2023/07/22 09:28:00;;;;;;;1.95;1.60;;;22.10;99.90;;;;;;4997695;28;20398;-89
2023/07/22 09:30:34;;;;;;;1.52;1.40;;;22.20;99.90;;;;;;4988778;28;20413;-84
2023/07/22 09:33:03;;;;;;;1.58;1.48;;;25.10;99.90;;;;;;4972056;28;20415;-85
2023/07/22 09:35:46;;;;;;;2.08;1.70;;;23.60;99.90;;;;;;4977097;28;20419;-85
2023/07/22 09:38:12;;;;;;;1.70;1.60;;;23.30;99.90;;;;;;4974663;28;20392;-85
2023/07/22 09:40:40;;;;;;;1.80;1.50;;;23.70;99.90;;;;;;4986674;28;20437;-87
2023/07/22 09:43:08;;;;;;;2.67;1.70;;;23.10;99.90;;;;;;4978783;28;20404;-86
2023/07/22 09:45:35;;;;;;;2.70;1.58;;;23.90;99.90;;;;;;4973300;28;20892;-87
2023/07/22 09:48:00;;;;;;;2.38;1.40;;;22.90;99.90;;;;;;4967740;28;20435;-89
2023/07/22 09:50:26;;;;;;;2.80;1.60;;;24.80;99.90;;;;;;4972703;28;20407;-84
2023/07/22 09:52:54;;;;;;;1.50;1.40;;;22.80;99.90;;;;;;4974123;28;20408;-89
2023/07/22 09:55:28;;;;;;;2.30;1.90;;;24.80;99.90;;;;;;4974319;28;20426;-84
2023/07/22 09:57:56;;;;;;;1.58;1.45;;;22.60;99.90;;;;;;4973390;28;20392;-89
2023/07/22 10:00:25;;;;;;;2.97;1.70;;;24.90;99.90;;;;;;4972432;28;20400;-88
2023/07/22 10:02:52;;;;;;;2.70;1.40;;;23.90;99.90;;;;;;4974479;28;20400;-90
2023/07/22 10:05:20;;;;;;;2.42;1.40;;;23.10;99.90;;;;;;4974741;28;20439;-86
2023/07/22 10:07:50;;;;;;;1.92;1.55;;;23.30;99.90;;;;;;4973981;28;20392;-85
2023/07/22 10:10:19;;;;;;;2.83;1.60;;;25.30;99.90;;;;;;4984455;28;20390;-85
2023/07/22 10:12:45;;;;;;;1.85;1.60;;;23.10;99.90;;;;;;4991898;28;20398;-89
2023/07/22 10:15:13;;;;;;;2.17;1.60;;;22.90;99.90;;;;;;4991152;28;20418;-89
2023/07/22 10:17:40;;;;;;;2.00;1.37;;;22.90;99.90;;;;;;4988003;28;20406;-83
2023/07/22 10:20:15;;;;;;;2.30;1.70;;;23.00;99.90;;;;;;4957762;28;20408;-82
2023/07/22 10:22:43;;;;;;;2.10;1.60;;;23.40;99.90;;;;;;4964938;28;20407;-81
2023/07/22 10:25:11;;;;;;;4.88;2.13;;;23.70;99.90;;;;;;4976400;28;20396;-85
2023/07/22 10:27:39;;;;;;;2.50;1.40;;;23.30;99.90;;;;;;4974390;28;20488;-84
2023/07/22 10:30:05;;;;;;;2.10;1.50;;;22.60;99.90;;;;;;4971139;28;20408;-81
2023/07/22 10:32:36;;;;;;;1.30;1.20;;;23.10;99.90;;;;;;4972053;28;20400;-84
2023/07/22 10:35:02;;;;;;;1.60;1.50;;;23.40;99.90;;;;;;4980768;28;20504;-84
2023/07/22 10:37:32;;;;;;;1.63;1.42;;;23.50;99.90;;;;;;4977700;28;20432;-83
2023/07/22 10:40:19;;;;;;;2.05;1.40;;;23.50;99.90;;;;;;4977353;28;20392;-83
2023/07/22 10:42:59;;;;;;;2.42;1.45;;;23.70;99.90;;;;;;4986029;28;20404;-80
2023/07/22 10:45:29;;;;;;;2.25;1.30;;;23.40;99.90;;;;;;4974847;28;20406;-83
2023/07/22 10:48:02;;;;;;;2.17;1.30;;;23.70;99.90;;;;;;4974207;28;20741;-82
2023/07/22 10:50:43;;;;;;;1.83;1.40;;;23.80;1.00;;;;;;4975632;28;20753;-83
2023/07/22 10:53:14;;;;;;;3.55;1.60;;;24.50;99.90;;;;;;4978342;28;20403;-83
2023/07/22 10:56:08;;;;;;;1.60;1.50;;;23.70;99.90;;;;;;4978785;28;20422;-84
2023/07/22 10:58:48;;;;;;;2.00;1.40;;;23.60;99.90;;;;;;4979856;28;20392;-82
2023/07/22 11:01:24;;;;;;;2.00;1.60;;;23.50;99.90;;;;;;4975888;28;20388;-84
2023/07/22 11:04:15;;;;;;;3.10;1.73;;;23.80;99.90;;;;;;4974305;28;20912;-82
2023/07/22 11:06:44;;;;;;;2.10;1.40;;;23.20;1.00;;;;;;4977734;28;20400;-83
2023/07/22 11:09:34;;;;;;;3.30;1.85;;;23.60;1.00;;;;;;4977135;28;20475;-82
2023/07/22 11:12:04;;;;;;;1.60;1.40;;;23.70;99.90;;;;;;4978486;28;20403;-82
2023/07/22 11:14:37;;;;;;;2.17;1.70;;;24.00;99.90;;;;;;4977279;28;20396;-84
2023/07/22 11:17:05;;;;;;;1.90;1.67;;;24.10;1.00;;;;;;4997784;28;20392;-81
2023/07/22 11:19:31;;;;;;;1.60;1.30;;;24.30;99.90;;;;;;4998294;28;20408;-83
2023/07/22 11:21:57;;;;;;;1.40;1.27;;;24.20;99.90;;;;;;4998503;28;20460;-79
2023/07/22 11:24:23;;;;;;;2.43;1.80;;;23.50;99.90;;;;;;4992893;28;20465;-83
2023/07/22 11:26:50;;;;;;;1.98;1.80;;;25.00;99.90;;;;;;4984952;28;20400;-82
2023/07/22 11:29:16;;;;;;;2.75;2.00;;;24.70;99.90;;;;;;4988081;28;20388;-81
2023/07/22 11:31:45;;;;;;;2.07;1.87;;;24.80;99.90;;;;;;4991746;28;20915;-82
2023/07/22 11:34:12;;;;;;;2.10;1.88;;;24.90;1.00;;;;;;4991741;28;20424;-83
2023/07/22 11:36:38;;;;;;;2.88;1.60;;;24.50;1.00;;;;;;4991036;28;20452;-83
2023/07/22 11:39:24;;;;;;;2.60;2.00;;;24.80;56.10;;;;;;4964631;28;20429;-80
2023/07/22 11:41:50;;;;;;;2.40;1.30;;;24.90;99.90;;;;;;4956716;28;20386;-82
2023/07/22 11:44:21;;;;;;;2.10;1.90;;;24.90;99.90;;;;;;4976983;28;20463;-82
2023/07/22 11:46:55;;;;;;;2.90;2.20;;;25.40;99.90;;;;;;4974971;28;20492;-83
2023/07/22 11:49:27;;;;;;;3.40;1.60;;;26.00;99.90;;;;;;4976968;28;20884;-83
2023/07/22 11:51:59;;;;;;;2.50;1.83;;;26.30;99.90;;;;;;4978617;28;20756;-82
2023/07/22 11:54:25;;;;;;;3.92;1.90;;;26.80;99.90;;;;;;4958617;28;20418;-85
2023/07/22 11:56:51;;;;;;;1.90;1.70;;;27.10;99.90;;;;;;4974672;28;20408;-83
2023/07/22 11:59:17;;;;;;;2.23;1.63;;;27.80;1.00;;;;;;4978209;28;20805;-82
2023/07/22 12:01:46;;;;;;;2.63;1.60;;;27.40;98.00;;;;;;4977446;28;20388;-82
2023/07/22 12:04:14;;;;;;;3.90;1.57;;;27.90;1.00;;;;;;4977445;28;20400;-82
2023/07/22 12:06:41;;;;;;;2.40;1.70;;;27.20;1.00;;;;;;4972274;28;20439;-81
2023/07/22 12:09:09;;;;;;;3.00;1.60;;;27.60;1.00;;;;;;4963999;28;20405;-83
2023/07/22 12:11:35;;;;;;;1.93;1.60;;;27.30;1.00;;;;;;4963789;28;20410;-81
2023/07/22 12:14:11;;;;;;;2.00;1.58;;;27.10;1.00;;;;;;4960630;28;20493;-83
2023/07/22 12:16:39;;;;;;;1.83;1.50;;;26.90;1.00;;;;;;4961205;28;20431;-82
2023/07/22 12:19:06;;;;;;;1.95;1.73;;;25.90;1.00;;;;;;4975743;28;20413;-83
2023/07/22 12:21:33;;;;;;;1.88;1.60;;;26.60;1.00;;;;;;4997195;28;20395;-82
2023/07/22 12:23:58;;;;;;;2.13;1.60;;;26.30;1.00;;;;;;4981790;28;20553;-83
2023/07/22 12:26:24;;;;;;;1.80;1.70;;;27.90;1.00;;;;;;4978254;28;20423;-83
2023/07/22 12:28:50;;;;;;;2.80;1.75;;;27.10;1.00;;;;;;4974499;28;20392;-84
2023/07/22 12:31:16;;;;;;;1.90;1.63;;;26.70;1.00;;;;;;4979326;28;20429;-82
2023/07/22 12:33:42;;;;;;;2.00;1.80;;;25.80;11.00;;;;;;4985494;28;20467;-83
2023/07/22 12:36:07;;;;;;;2.40;1.80;;;26.20;1.00;;;;;;4982670;28;20800;-84
2023/07/22 12:38:33;;;;;;;1.70;1.30;;;26.60;1.00;;;;;;4981526;28;20793;-82
2023/07/22 12:41:00;;;;;;;1.88;1.77;;;26.70;1.00;;;;;;4977950;28;20396;-80
2023/07/22 12:43:25;;;;;;;2.03;1.52;;;26.50;1.00;;;;;;4974606;28;20837;-81
2023/07/22 12:45:51;;;;;;;5.82;3.88;;;26.60;1.00;;;;;;4976749;28;20404;-82